CheckWX is a tool to help pilots better visualize weather data.  It is not intended as a substitute for an official pre-flight weather briefing.

20:55:37 UTC

LFPV METAR
Villacoublay-Vélizy (BA 107) Air Base Airport
Villacoublay/Vélizy, France
Current

26 mins ago

LFPV 232030Z AUTO 06008KT 8000 BKN028 10/04 Q1029 NOSIG
Observed
Mar-23 @ 20:30 UTC
Wind
  • 060° at 8 KTS
Visibility
7,998 meters
Flight Rules
MVFR
Cloud Levels
  • Broken at 2,800' AGL
Temperature
10°C / 50°F
Dewpoint
C / 39°F
Humidity
67%
Altimeter
30.38" Hg
Pressure
1028.91 hPa
Previous

56 mins ago

LFPV 232000Z AUTO 06008KT 8000 OVC026 10/05 Q1029 NOSIG
Observed
Mar-23 @ 20:00 UTC
Wind
  • 060° at 8 KTS
Visibility
7,998 meters
Flight Rules
MVFR
Cloud Levels
  • Overcast at 2,600' AGL
Temperature
10°C / 50°F
Dewpoint
C / 41°F
Humidity
71%
Altimeter
30.38" Hg
Pressure
1028.91 hPa
Previous

1 hour ago

LFPV 231930Z AUTO 04008KT 9000 OVC028 10/05 Q1029 NOSIG
Observed
Mar-23 @ 19:30 UTC
Wind
  • 040° at 8 KTS
Visibility
8,996 meters
Flight Rules
MVFR
Cloud Levels
  • Overcast at 2,800' AGL
Temperature
10°C / 50°F
Dewpoint
C / 41°F
Humidity
71%
Altimeter
30.38" Hg
Pressure
1028.91 hPa